sensor_id;sensor_type;location;lat;lon;timestamp;P1;durP1;ratioP1;P2;durP2;ratioP2
20896;SDS011;10608;42.600;23.398;2022-12-10T00:01:31;27.43;;;26.33;;
20896;SDS011;10608;42.600;23.398;2022-12-10T00:03:58;26.37;;;25.33;;
20896;SDS011;10608;42.600;23.398;2022-12-10T00:06:33;19.57;;;18.77;;
20896;SDS011;10608;42.600;23.398;2022-12-10T00:09:00;20.20;;;19.40;;
20896;SDS011;10608;42.600;23.398;2022-12-10T00:11:27;28.57;;;27.37;;
20896;SDS011;10608;42.600;23.398;2022-12-10T00:13:54;28.00;;;26.83;;
20896;SDS011;10608;42.600;23.398;2022-12-10T00:16:20;40.53;;;38.83;;
20896;SDS011;10608;42.600;23.398;2022-12-10T00:18:47;35.73;;;34.23;;
20896;SDS011;10608;42.600;23.398;2022-12-10T00:21:15;24.63;;;23.63;;
20896;SDS011;10608;42.600;23.398;2022-12-10T00:23:43;30.27;;;29.03;;
20896;SDS011;10608;42.600;23.398;2022-12-10T00:26:14;54.53;;;52.30;;
20896;SDS011;10608;42.600;23.398;2022-12-10T00:28:46;52.07;;;49.90;;
20896;SDS011;10608;42.600;23.398;2022-12-10T00:31:13;50.93;;;48.73;;
20896;SDS011;10608;42.600;23.398;2022-12-10T00:33:41;76.00;;;72.77;;
20896;SDS011;10608;42.600;23.398;2022-12-10T00:36:11;37.33;;;35.77;;
20896;SDS011;10608;42.600;23.398;2022-12-10T00:38:39;39.93;;;38.30;;
20896;SDS011;10608;42.600;23.398;2022-12-10T00:41:05;33.13;;;31.77;;
20896;SDS011;10608;42.600;23.398;2022-12-10T00:43:31;37.50;;;35.97;;
20896;SDS011;10608;42.600;23.398;2022-12-10T00:45:57;46.20;;;44.30;;
20896;SDS011;10608;42.600;23.398;2022-12-10T00:48:22;43.77;;;41.90;;
20896;SDS011;10608;42.600;23.398;2022-12-10T00:50:58;36.87;;;35.37;;
20896;SDS011;10608;42.600;23.398;2022-12-10T00:53:24;27.67;;;26.50;;
20896;SDS011;10608;42.600;23.398;2022-12-10T00:55:51;21.53;;;20.63;;
20896;SDS011;10608;42.600;23.398;2022-12-10T00:58:17;25.40;;;24.40;;
20896;SDS011;10608;42.600;23.398;2022-12-10T01:00:43;17.40;;;16.70;;
20896;SDS011;10608;42.600;23.398;2022-12-10T01:03:09;19.50;;;18.70;;
20896;SDS011;10608;42.600;23.398;2022-12-10T01:05:34;15.43;;;14.83;;
20896;SDS011;10608;42.600;23.398;2022-12-10T01:08:00;20.43;;;19.63;;
20896;SDS011;10608;42.600;23.398;2022-12-10T01:10:25;15.30;;;14.70;;
20896;SDS011;10608;42.600;23.398;2022-12-10T01:12:50;18.93;;;18.13;;
20896;SDS011;10608;42.600;23.398;2022-12-10T01:15:16;21.63;;;20.73;;
20896;SDS011;10608;42.600;23.398;2022-12-10T01:17:41;14.97;;;14.37;;
20896;SDS011;10608;42.600;23.398;2022-12-10T01:20:07;19.70;;;18.90;;
20896;SDS011;10608;42.600;23.398;2022-12-10T01:22:32;33.43;;;32.03;;
20896;SDS011;10608;42.600;23.398;2022-12-10T01:24:58;55.77;;;53.47;;
20896;SDS011;10608;42.600;23.398;2022-12-10T01:27:23;52.50;;;50.27;;
20896;SDS011;10608;42.600;23.398;2022-12-10T01:29:49;24.33;;;23.33;;
20896;SDS011;10608;42.600;23.398;2022-12-10T01:32:14;15.87;;;15.23;;
20896;SDS011;10608;42.600;23.398;2022-12-10T01:34:40;20.23;;;19.40;;
20896;SDS011;10608;42.600;23.398;2022-12-10T01:37:05;18.93;;;18.13;;
20896;SDS011;10608;42.600;23.398;2022-12-10T01:39:30;19.40;;;18.60;;
20896;SDS011;10608;42.600;23.398;2022-12-10T01:41:57;19.30;;;18.53;;
20896;SDS011;10608;42.600;23.398;2022-12-10T01:46:53;21.23;;;20.43;;
20896;SDS011;10608;42.600;23.398;2022-12-10T01:49:21;21.93;;;21.03;;
20896;SDS011;10608;42.600;23.398;2022-12-10T01:51:51;20.40;;;19.60;;
20896;SDS011;10608;42.600;23.398;2022-12-10T01:59:43;15.27;;;14.67;;
20896;SDS011;10608;42.600;23.398;2022-12-10T02:05:07;18.40;;;17.67;;
20896;SDS011;10608;42.600;23.398;2022-12-10T02:07:47;18.37;;;17.67;;
20896;SDS011;10608;42.600;23.398;2022-12-10T02:13:01;19.20;;;18.40;;
20896;SDS011;10608;42.600;23.398;2022-12-10T02:15:32;16.23;;;15.53;;
20896;SDS011;10608;42.600;23.398;2022-12-10T02:18:24;17.10;;;16.40;;
20896;SDS011;10608;42.600;23.398;2022-12-10T02:20:57;20.37;;;19.57;;
20896;SDS011;10608;42.600;23.398;2022-12-10T02:23:30;28.43;;;27.23;;
20896;SDS011;10608;42.600;23.398;2022-12-10T02:26:06;35.20;;;33.70;;
20896;SDS011;10608;42.600;23.398;2022-12-10T02:31:30;43.33;;;41.53;;
20896;SDS011;10608;42.600;23.398;2022-12-10T02:33:58;35.60;;;34.10;;
20896;SDS011;10608;42.600;23.398;2022-12-10T02:36:27;46.80;;;44.63;;
20896;SDS011;10608;42.600;23.398;2022-12-10T02:38:57;34.00;;;32.63;;
20896;SDS011;10608;42.600;23.398;2022-12-10T02:41:31;20.67;;;19.83;;
20896;SDS011;10608;42.600;23.398;2022-12-10T02:44:00;18.17;;;17.47;;
20896;SDS011;10608;42.600;23.398;2022-12-10T02:46:31;14.57;;;13.97;;
20896;SDS011;10608;42.600;23.398;2022-12-10T02:48:59;17.87;;;17.17;;
20896;SDS011;10608;42.600;23.398;2022-12-10T02:51:29;21.20;;;20.30;;
20896;SDS011;10608;42.600;23.398;2022-12-10T02:53:58;18.33;;;17.63;;
20896;SDS011;10608;42.600;23.398;2022-12-10T02:59:40;18.17;;;17.47;;
20896;SDS011;10608;42.600;23.398;2022-12-10T03:02:17;17.30;;;16.60;;
20896;SDS011;10608;42.600;23.398;2022-12-10T03:05:04;19.73;;;18.93;;
20896;SDS011;10608;42.600;23.398;2022-12-10T03:10:27;19.43;;;18.63;;
20896;SDS011;10608;42.600;23.398;2022-12-10T03:13:00;15.47;;;14.87;;
20896;SDS011;10608;42.600;23.398;2022-12-10T03:15:32;18.47;;;17.67;;
20896;SDS011;10608;42.600;23.398;2022-12-10T03:18:01;19.50;;;18.70;;
20896;SDS011;10608;42.600;23.398;2022-12-10T03:20:28;18.07;;;17.37;;
20896;SDS011;10608;42.600;23.398;2022-12-10T03:22:56;17.93;;;17.23;;
20896;SDS011;10608;42.600;23.398;2022-12-10T03:25:23;18.80;;;17.93;;
20896;SDS011;10608;42.600;23.398;2022-12-10T03:27:52;16.27;;;15.67;;
20896;SDS011;10608;42.600;23.398;2022-12-10T03:30:20;21.37;;;20.50;;
20896;SDS011;10608;42.600;23.398;2022-12-10T03:32:46;19.33;;;18.53;;
20896;SDS011;10608;42.600;23.398;2022-12-10T03:35:13;16.17;;;15.33;;
20896;SDS011;10608;42.600;23.398;2022-12-10T03:37:41;18.87;;;18.07;;
20896;SDS011;10608;42.600;23.398;2022-12-10T03:40:07;15.33;;;14.73;;
20896;SDS011;10608;42.600;23.398;2022-12-10T03:42:36;18.70;;;17.90;;
20896;SDS011;10608;42.600;23.398;2022-12-10T03:45:02;16.87;;;16.17;;
20896;SDS011;10608;42.600;23.398;2022-12-10T03:47:28;16.43;;;15.73;;
20896;SDS011;10608;42.600;23.398;2022-12-10T03:49:54;13.97;;;13.47;;
20896;SDS011;10608;42.600;23.398;2022-12-10T03:52:19;19.23;;;18.43;;
20896;SDS011;10608;42.600;23.398;2022-12-10T03:54:45;15.90;;;15.30;;
20896;SDS011;10608;42.600;23.398;2022-12-10T03:57:10;20.00;;;19.20;;
20896;SDS011;10608;42.600;23.398;2022-12-10T03:59:36;16.80;;;16.10;;
20896;SDS011;10608;42.600;23.398;2022-12-10T04:02:01;15.40;;;14.73;;
20896;SDS011;10608;42.600;23.398;2022-12-10T04:04:28;20.13;;;19.23;;
20896;SDS011;10608;42.600;23.398;2022-12-10T04:06:54;17.63;;;16.73;;
20896;SDS011;10608;42.600;23.398;2022-12-10T04:09:19;16.60;;;15.90;;
20896;SDS011;10608;42.600;23.398;2022-12-10T04:11:45;16.37;;;15.67;;
20896;SDS011;10608;42.600;23.398;2022-12-10T04:14:11;19.63;;;18.83;;
20896;SDS011;10608;42.600;23.398;2022-12-10T04:16:56;17.60;;;16.90;;
20896;SDS011;10608;42.600;23.398;2022-12-10T04:19:21;18.30;;;17.60;;
20896;SDS011;10608;42.600;23.398;2022-12-10T04:21:47;19.87;;;19.07;;
20896;SDS011;10608;42.600;23.398;2022-12-10T04:24:32;19.73;;;18.93;;
20896;SDS011;10608;42.600;23.398;2022-12-10T04:27:19;19.60;;;18.80;;
20896;SDS011;10608;42.600;23.398;2022-12-10T04:29:47;20.73;;;19.90;;
20896;SDS011;10608;42.600;23.398;2022-12-10T04:32:13;20.07;;;19.27;;
20896;SDS011;10608;42.600;23.398;2022-12-10T04:34:39;17.63;;;16.93;;
20896;SDS011;10608;42.600;23.398;2022-12-10T04:37:04;16.80;;;16.13;;
20896;SDS011;10608;42.600;23.398;2022-12-10T04:39:30;16.57;;;15.87;;
20896;SDS011;10608;42.600;23.398;2022-12-10T04:41:56;18.47;;;17.67;;
20896;SDS011;10608;42.600;23.398;2022-12-10T04:44:22;18.60;;;17.90;;
20896;SDS011;10608;42.600;23.398;2022-12-10T04:46:48;23.90;;;22.90;;
20896;SDS011;10608;42.600;23.398;2022-12-10T04:49:14;22.17;;;21.27;;
20896;SDS011;10608;42.600;23.398;2022-12-10T04:51:40;15.57;;;14.93;;
20896;SDS011;10608;42.600;23.398;2022-12-10T04:54:06;15.33;;;14.73;;
20896;SDS011;10608;42.600;23.398;2022-12-10T04:56:32;21.63;;;20.73;;
20896;SDS011;10608;42.600;23.398;2022-12-10T04:58:58;20.43;;;19.60;;
20896;SDS011;10608;42.600;23.398;2022-12-10T05:01:24;40.83;;;39.17;;
20896;SDS011;10608;42.600;23.398;2022-12-10T05:03:49;24.43;;;23.43;;
20896;SDS011;10608;42.600;23.398;2022-12-10T05:06:15;29.07;;;27.90;;
20896;SDS011;10608;42.600;23.398;2022-12-10T05:08:42;34.90;;;33.40;;
20896;SDS011;10608;42.600;23.398;2022-12-10T05:11:12;23.83;;;22.83;;
20896;SDS011;10608;42.600;23.398;2022-12-10T05:13:39;24.73;;;23.73;;
20896;SDS011;10608;42.600;23.398;2022-12-10T05:16:05;23.37;;;22.47;;
20896;SDS011;10608;42.600;23.398;2022-12-10T05:18:32;26.03;;;24.97;;
20896;SDS011;10608;42.600;23.398;2022-12-10T05:20:59;20.73;;;19.93;;
20896;SDS011;10608;42.600;23.398;2022-12-10T05:23:25;17.57;;;16.87;;
20896;SDS011;10608;42.600;23.398;2022-12-10T05:28:28;19.20;;;18.40;;
20896;SDS011;10608;42.600;23.398;2022-12-10T05:30:56;28.00;;;26.80;;
20896;SDS011;10608;42.600;23.398;2022-12-10T05:33:22;18.37;;;17.63;;
20896;SDS011;10608;42.600;23.398;2022-12-10T05:35:58;23.10;;;22.17;;
20896;SDS011;10608;42.600;23.398;2022-12-10T05:38:29;20.30;;;19.50;;
20896;SDS011;10608;42.600;23.398;2022-12-10T05:40:55;25.40;;;24.37;;
20896;SDS011;10608;42.600;23.398;2022-12-10T05:43:28;29.50;;;28.30;;
20896;SDS011;10608;42.600;23.398;2022-12-10T05:45:54;28.30;;;27.10;;
20896;SDS011;10608;42.600;23.398;2022-12-10T05:48:24;29.63;;;28.43;;
20896;SDS011;10608;42.600;23.398;2022-12-10T05:50:49;19.03;;;18.23;;
20896;SDS011;10608;42.600;23.398;2022-12-10T05:53:15;17.03;;;16.33;;
20896;SDS011;10608;42.600;23.398;2022-12-10T05:55:43;17.73;;;17.03;;
20896;SDS011;10608;42.600;23.398;2022-12-10T05:58:08;16.37;;;15.77;;
20896;SDS011;10608;42.600;23.398;2022-12-10T06:00:34;15.33;;;14.70;;
20896;SDS011;10608;42.600;23.398;2022-12-10T06:02:59;14.77;;;14.17;;
20896;SDS011;10608;42.600;23.398;2022-12-10T06:05:25;15.30;;;14.70;;
20896;SDS011;10608;42.600;23.398;2022-12-10T06:07:51;15.87;;;15.27;;
20896;SDS011;10608;42.600;23.398;2022-12-10T06:10:16;18.00;;;17.30;;
20896;SDS011;10608;42.600;23.398;2022-12-10T06:12:42;22.87;;;21.77;;
20896;SDS011;10608;42.600;23.398;2022-12-10T06:15:08;13.27;;;12.73;;
20896;SDS011;10608;42.600;23.398;2022-12-10T06:17:33;11.47;;;10.97;;
20896;SDS011;10608;42.600;23.398;2022-12-10T06:19:59;15.47;;;14.87;;
20896;SDS011;10608;42.600;23.398;2022-12-10T06:22:24;18.57;;;17.87;;
20896;SDS011;10608;42.600;23.398;2022-12-10T06:24:50;15.03;;;14.43;;
20896;SDS011;10608;42.600;23.398;2022-12-10T06:27:15;18.10;;;17.40;;
20896;SDS011;10608;42.600;23.398;2022-12-10T06:29:40;29.07;;;27.87;;
20896;SDS011;10608;42.600;23.398;2022-12-10T06:32:06;78.93;;;75.63;;
20896;SDS011;10608;42.600;23.398;2022-12-10T06:34:31;35.87;;;34.37;;
20896;SDS011;10608;42.600;23.398;2022-12-10T06:36:57;51.10;;;48.97;;
20896;SDS011;10608;42.600;23.398;2022-12-10T06:39:22;39.77;;;38.07;;
20896;SDS011;10608;42.600;23.398;2022-12-10T06:41:48;36.53;;;35.03;;
20896;SDS011;10608;42.600;23.398;2022-12-10T06:44:13;35.60;;;34.17;;
20896;SDS011;10608;42.600;23.398;2022-12-10T06:46:39;41.43;;;39.73;;
20896;SDS011;10608;42.600;23.398;2022-12-10T06:49:05;37.80;;;36.23;;
20896;SDS011;10608;42.600;23.398;2022-12-10T06:51:32;31.20;;;29.90;;
20896;SDS011;10608;42.600;23.398;2022-12-10T06:53:57;19.00;;;18.23;;
20896;SDS011;10608;42.600;23.398;2022-12-10T06:56:23;21.80;;;20.90;;
20896;SDS011;10608;42.600;23.398;2022-12-10T06:58:48;20.77;;;19.93;;
20896;SDS011;10608;42.600;23.398;2022-12-10T07:01:15;23.10;;;22.17;;
20896;SDS011;10608;42.600;23.398;2022-12-10T07:03:47;20.00;;;19.17;;
20896;SDS011;10608;42.600;23.398;2022-12-10T07:06:14;23.80;;;22.80;;
20896;SDS011;10608;42.600;23.398;2022-12-10T07:08:39;27.97;;;26.57;;
20896;SDS011;10608;42.600;23.398;2022-12-10T07:11:06;18.93;;;18.13;;
20896;SDS011;10608;42.600;23.398;2022-12-10T07:13:33;21.93;;;20.93;;
20896;SDS011;10608;42.600;23.398;2022-12-10T07:15:59;28.00;;;26.80;;
20896;SDS011;10608;42.600;23.398;2022-12-10T07:18:25;22.27;;;21.37;;
20896;SDS011;10608;42.600;23.398;2022-12-10T07:20:51;34.00;;;32.57;;
20896;SDS011;10608;42.600;23.398;2022-12-10T07:23:16;23.90;;;22.90;;
20896;SDS011;10608;42.600;23.398;2022-12-10T07:25:42;31.13;;;29.80;;
20896;SDS011;10608;42.600;23.398;2022-12-10T07:28:07;37.50;;;36.00;;
20896;SDS011;10608;42.600;23.398;2022-12-10T07:30:33;28.10;;;26.97;;
20896;SDS011;10608;42.600;23.398;2022-12-10T07:32:58;26.60;;;25.50;;
20896;SDS011;10608;42.600;23.398;2022-12-10T07:35:24;24.87;;;23.77;;
20896;SDS011;10608;42.600;23.398;2022-12-10T07:37:49;31.23;;;29.77;;
20896;SDS011;10608;42.600;23.398;2022-12-10T07:40:15;26.23;;;25.03;;
20896;SDS011;10608;42.600;23.398;2022-12-10T07:42:40;21.97;;;21.07;;
20896;SDS011;10608;42.600;23.398;2022-12-10T07:45:06;22.80;;;21.90;;
20896;SDS011;10608;42.600;23.398;2022-12-10T07:47:34;24.10;;;23.10;;
20896;SDS011;10608;42.600;23.398;2022-12-10T07:50:01;26.27;;;25.20;;
20896;SDS011;10608;42.600;23.398;2022-12-10T07:52:26;27.77;;;26.63;;
20896;SDS011;10608;42.600;23.398;2022-12-10T07:54:52;31.73;;;30.40;;
20896;SDS011;10608;42.600;23.398;2022-12-10T07:57:17;34.27;;;32.87;;
20896;SDS011;10608;42.600;23.398;2022-12-10T07:59:42;35.37;;;33.87;;
20896;SDS011;10608;42.600;23.398;2022-12-10T08:02:08;42.90;;;41.10;;
20896;SDS011;10608;42.600;23.398;2022-12-10T08:04:34;37.47;;;35.90;;
20896;SDS011;10608;42.600;23.398;2022-12-10T08:07:00;33.03;;;31.63;;
20896;SDS011;10608;42.600;23.398;2022-12-10T08:09:25;43.53;;;41.70;;
20896;SDS011;10608;42.600;23.398;2022-12-10T08:11:52;25.13;;;24.13;;
20896;SDS011;10608;42.600;23.398;2022-12-10T08:14:17;38.70;;;37.10;;
20896;SDS011;10608;42.600;23.398;2022-12-10T08:16:43;49.47;;;47.40;;
20896;SDS011;10608;42.600;23.398;2022-12-10T08:19:08;29.60;;;28.40;;
20896;SDS011;10608;42.600;23.398;2022-12-10T08:21:34;34.90;;;33.47;;
20896;SDS011;10608;42.600;23.398;2022-12-10T08:24:00;53.37;;;51.13;;
20896;SDS011;10608;42.600;23.398;2022-12-10T08:26:27;52.27;;;50.07;;
20896;SDS011;10608;42.600;23.398;2022-12-10T08:28:55;98.97;;;94.77;;
20896;SDS011;10608;42.600;23.398;2022-12-10T08:31:22;90.20;;;86.37;;
20896;SDS011;10608;42.600;23.398;2022-12-10T08:33:49;59.30;;;56.77;;
20896;SDS011;10608;42.600;23.398;2022-12-10T08:36:15;48.50;;;46.50;;
20896;SDS011;10608;42.600;23.398;2022-12-10T08:38:41;44.57;;;42.57;;
20896;SDS011;10608;42.600;23.398;2022-12-10T08:41:09;37.73;;;36.20;;
20896;SDS011;10608;42.600;23.398;2022-12-10T08:43:36;45.80;;;43.87;;
20896;SDS011;10608;42.600;23.398;2022-12-10T08:46:02;72.57;;;69.50;;
20896;SDS011;10608;42.600;23.398;2022-12-10T08:48:27;119.80;;;114.80;;
20896;SDS011;10608;42.600;23.398;2022-12-10T08:50:53;67.90;;;65.03;;
20896;SDS011;10608;42.600;23.398;2022-12-10T08:53:19;47.47;;;45.50;;
20896;SDS011;10608;42.600;23.398;2022-12-10T08:55:44;91.90;;;87.83;;
20896;SDS011;10608;42.600;23.398;2022-12-10T08:58:10;74.20;;;71.07;;
20896;SDS011;10608;42.600;23.398;2022-12-10T09:00:36;78.27;;;74.83;;
20896;SDS011;10608;42.600;23.398;2022-12-10T09:03:02;61.40;;;58.77;;
20896;SDS011;10608;42.600;23.398;2022-12-10T09:05:28;47.10;;;45.13;;
20896;SDS011;10608;42.600;23.398;2022-12-10T09:07:53;49.33;;;47.23;;
20896;SDS011;10608;42.600;23.398;2022-12-10T09:10:19;43.23;;;41.43;;
20896;SDS011;10608;42.600;23.398;2022-12-10T09:12:45;42.80;;;40.97;;
20896;SDS011;10608;42.600;23.398;2022-12-10T09:15:10;47.00;;;45.07;;
20896;SDS011;10608;42.600;23.398;2022-12-10T09:17:37;38.57;;;36.97;;
20896;SDS011;10608;42.600;23.398;2022-12-10T09:20:03;26.30;;;25.20;;
20896;SDS011;10608;42.600;23.398;2022-12-10T09:22:29;28.57;;;27.43;;
20896;SDS011;10608;42.600;23.398;2022-12-10T09:24:55;40.57;;;38.87;;
20896;SDS011;10608;42.600;23.398;2022-12-10T09:27:20;25.67;;;24.60;;
20896;SDS011;10608;42.600;23.398;2022-12-10T09:29:46;23.53;;;22.53;;
20896;SDS011;10608;42.600;23.398;2022-12-10T09:32:11;39.50;;;37.87;;
20896;SDS011;10608;42.600;23.398;2022-12-10T09:34:37;19.10;;;18.30;;
20896;SDS011;10608;42.600;23.398;2022-12-10T09:37:02;22.53;;;21.60;;
20896;SDS011;10608;42.600;23.398;2022-12-10T09:39:28;19.73;;;18.93;;
20896;SDS011;10608;42.600;23.398;2022-12-10T09:47:17;19.13;;;18.33;;
20896;SDS011;10608;42.600;23.398;2022-12-10T09:50:02;22.27;;;21.37;;
20896;SDS011;10608;42.600;23.398;2022-12-10T09:52:38;35.23;;;33.80;;
20896;SDS011;10608;42.600;23.398;2022-12-10T09:55:17;28.93;;;27.73;;
20896;SDS011;10608;42.600;23.398;2022-12-10T09:57:49;25.37;;;24.33;;
20896;SDS011;10608;42.600;23.398;2022-12-10T10:00:18;19.47;;;18.67;;
20896;SDS011;10608;42.600;23.398;2022-12-10T10:02:47;16.83;;;16.13;;
20896;SDS011;10608;42.600;23.398;2022-12-10T10:05:22;21.77;;;20.87;;
20896;SDS011;10608;42.600;23.398;2022-12-10T10:08:00;21.80;;;20.90;;
20896;SDS011;10608;42.600;23.398;2022-12-10T10:10:30;25.23;;;24.17;;
20896;SDS011;10608;42.600;23.398;2022-12-10T10:15:32;41.90;;;40.17;;
20896;SDS011;10608;42.600;23.398;2022-12-10T10:20:51;26.37;;;25.27;;
20896;SDS011;10608;42.600;23.398;2022-12-10T10:23:17;23.07;;;22.17;;
20896;SDS011;10608;42.600;23.398;2022-12-10T10:25:43;21.37;;;20.47;;
20896;SDS011;10608;42.600;23.398;2022-12-10T10:28:17;24.43;;;23.43;;
20896;SDS011;10608;42.600;23.398;2022-12-10T10:30:44;20.53;;;19.63;;
20896;SDS011;10608;42.600;23.398;2022-12-10T10:33:11;21.37;;;20.47;;
20896;SDS011;10608;42.600;23.398;2022-12-10T10:38:36;17.97;;;17.23;;
20896;SDS011;10608;42.600;23.398;2022-12-10T10:41:02;38.33;;;36.77;;
20896;SDS011;10608;42.600;23.398;2022-12-10T10:43:42;21.67;;;20.77;;
20896;SDS011;10608;42.600;23.398;2022-12-10T10:48:38;17.53;;;16.83;;
20896;SDS011;10608;42.600;23.398;2022-12-10T10:51:12;16.73;;;16.03;;
20896;SDS011;10608;42.600;23.398;2022-12-10T10:53:48;30.93;;;29.63;;
20896;SDS011;10608;42.600;23.398;2022-12-10T10:56:20;37.77;;;36.17;;
20896;SDS011;10608;42.600;23.398;2022-12-10T10:59:02;37.30;;;35.73;;
20896;SDS011;10608;42.600;23.398;2022-12-10T11:04:14;25.37;;;24.37;;
20896;SDS011;10608;42.600;23.398;2022-12-10T11:06:42;18.43;;;17.63;;
20896;SDS011;10608;42.600;23.398;2022-12-10T11:09:13;15.40;;;14.73;;
20896;SDS011;10608;42.600;23.398;2022-12-10T11:11:49;24.67;;;23.67;;
20896;SDS011;10608;42.600;23.398;2022-12-10T11:14:23;41.03;;;39.33;;
20896;SDS011;10608;42.600;23.398;2022-12-10T11:19:41;27.30;;;26.17;;
20896;SDS011;10608;42.600;23.398;2022-12-10T11:22:15;28.30;;;27.13;;
20896;SDS011;10608;42.600;23.398;2022-12-10T11:24:45;16.80;;;16.10;;
20896;SDS011;10608;42.600;23.398;2022-12-10T11:27:13;19.30;;;18.50;;
20896;SDS011;10608;42.600;23.398;2022-12-10T11:38:53;70.67;;;67.77;;
20896;SDS011;10608;42.600;23.398;2022-12-10T11:41:31;51.67;;;49.50;;
20896;SDS011;10608;42.600;23.398;2022-12-10T11:44:08;28.77;;;27.57;;
20896;SDS011;10608;42.600;23.398;2022-12-10T11:54:58;29.27;;;27.97;;
20896;SDS011;10608;42.600;23.398;2022-12-10T11:57:49;17.93;;;17.17;;
20896;SDS011;10608;42.600;23.398;2022-12-10T12:09:19;22.67;;;21.77;;
20896;SDS011;10608;42.600;23.398;2022-12-10T12:14:57;27.93;;;26.80;;
20896;SDS011;10608;42.600;23.398;2022-12-10T12:17:37;30.20;;;28.97;;
20896;SDS011;10608;42.600;23.398;2022-12-10T12:23:16;17.53;;;16.80;;
20896;SDS011;10608;42.600;23.398;2022-12-10T12:26:05;21.43;;;20.43;;
20896;SDS011;10608;42.600;23.398;2022-12-10T12:28:40;24.33;;;23.33;;
20896;SDS011;10608;42.600;23.398;2022-12-10T12:31:12;45.17;;;43.27;;
20896;SDS011;10608;42.600;23.398;2022-12-10T12:33:56;40.33;;;38.63;;
20896;SDS011;10608;42.600;23.398;2022-12-10T12:36:26;37.80;;;36.27;;
20896;SDS011;10608;42.600;23.398;2022-12-10T12:48:19;18.87;;;18.07;;
20896;SDS011;10608;42.600;23.398;2022-12-10T12:51:04;23.07;;;22.10;;
20896;SDS011;10608;42.600;23.398;2022-12-10T12:53:34;19.27;;;18.47;;
20896;SDS011;10608;42.600;23.398;2022-12-10T12:58:48;23.33;;;22.33;;
20896;SDS011;10608;42.600;23.398;2022-12-10T13:01:41;18.07;;;17.27;;
20896;SDS011;10608;42.600;23.398;2022-12-10T13:04:16;20.60;;;19.80;;
20896;SDS011;10608;42.600;23.398;2022-12-10T13:06:42;19.00;;;18.20;;
20896;SDS011;10608;42.600;23.398;2022-12-10T13:09:27;25.37;;;24.10;;
20896;SDS011;10608;42.600;23.398;2022-12-10T13:15:11;22.17;;;21.27;;
20896;SDS011;10608;42.600;23.398;2022-12-10T13:17:36;16.87;;;16.17;;
20896;SDS011;10608;42.600;23.398;2022-12-10T13:22:59;22.87;;;21.97;;
20896;SDS011;10608;42.600;23.398;2022-12-10T13:26:16;29.63;;;28.33;;
20896;SDS011;10608;42.600;23.398;2022-12-10T13:28:26;30.07;;;28.87;;
20896;SDS011;10608;42.600;23.398;2022-12-10T13:36:20;36.47;;;34.97;;
20896;SDS011;10608;42.600;23.398;2022-12-10T13:39:02;43.50;;;41.73;;
20896;SDS011;10608;42.600;23.398;2022-12-10T13:41:41;46.60;;;44.67;;
20896;SDS011;10608;42.600;23.398;2022-12-10T13:44:49;50.33;;;48.27;;
20896;SDS011;10608;42.600;23.398;2022-12-10T13:47:26;64.87;;;62.20;;
20896;SDS011;10608;42.600;23.398;2022-12-10T13:49:56;60.07;;;57.60;;
20896;SDS011;10608;42.600;23.398;2022-12-10T13:55:59;63.20;;;60.60;;
20896;SDS011;10608;42.600;23.398;2022-12-10T13:58:32;38.10;;;36.50;;
20896;SDS011;10608;42.600;23.398;2022-12-10T14:06:26;40.47;;;38.77;;
20896;SDS011;10608;42.600;23.398;2022-12-10T14:09:05;37.70;;;36.10;;
20896;SDS011;10608;42.600;23.398;2022-12-10T14:11:37;24.73;;;23.73;;
20896;SDS011;10608;42.600;23.398;2022-12-10T14:14:11;20.00;;;19.17;;
20896;SDS011;10608;42.600;23.398;2022-12-10T14:16:42;22.00;;;21.10;;
20896;SDS011;10608;42.600;23.398;2022-12-10T14:19:08;21.63;;;20.73;;
20896;SDS011;10608;42.600;23.398;2022-12-10T14:21:39;33.60;;;32.23;;
20896;SDS011;10608;42.600;23.398;2022-12-10T14:24:24;37.90;;;36.33;;
20896;SDS011;10608;42.600;23.398;2022-12-10T14:29:47;70.40;;;67.50;;
20896;SDS011;10608;42.600;23.398;2022-12-10T14:32:15;91.43;;;87.63;;
20896;SDS011;10608;42.600;23.398;2022-12-10T14:34:43;93.87;;;89.93;;
20896;SDS011;10608;42.600;23.398;2022-12-10T14:37:15;64.97;;;62.23;;
20896;SDS011;10608;42.600;23.398;2022-12-10T14:39:49;50.47;;;48.37;;
20896;SDS011;10608;42.600;23.398;2022-12-10T14:42:16;33.37;;;32.03;;
20896;SDS011;10608;42.600;23.398;2022-12-10T14:44:43;42.03;;;40.23;;
20896;SDS011;10608;42.600;23.398;2022-12-10T14:47:19;44.43;;;42.57;;
20896;SDS011;10608;42.600;23.398;2022-12-10T14:49:46;22.77;;;21.83;;
20896;SDS011;10608;42.600;23.398;2022-12-10T14:52:15;47.80;;;45.70;;
20896;SDS011;10608;42.600;23.398;2022-12-10T14:54:42;19.80;;;19.00;;
20896;SDS011;10608;42.600;23.398;2022-12-10T14:57:11;33.67;;;32.27;;
20896;SDS011;10608;42.600;23.398;2022-12-10T14:59:41;35.07;;;33.67;;
20896;SDS011;10608;42.600;23.398;2022-12-10T15:02:17;48.57;;;46.47;;
20896;SDS011;10608;42.600;23.398;2022-12-10T15:04:45;31.60;;;30.30;;
20896;SDS011;10608;42.600;23.398;2022-12-10T15:07:14;33.20;;;31.80;;
20896;SDS011;10608;42.600;23.398;2022-12-10T15:09:43;39.50;;;37.83;;
20896;SDS011;10608;42.600;23.398;2022-12-10T15:12:15;51.50;;;49.13;;
20896;SDS011;10608;42.600;23.398;2022-12-10T15:14:48;50.00;;;47.93;;
20896;SDS011;10608;42.600;23.398;2022-12-10T15:17:36;61.37;;;58.77;;
20896;SDS011;10608;42.600;23.398;2022-12-10T15:20:19;58.10;;;55.60;;
20896;SDS011;10608;42.600;23.398;2022-12-10T15:22:46;55.30;;;53.00;;
20896;SDS011;10608;42.600;23.398;2022-12-10T15:25:26;66.13;;;63.23;;
20896;SDS011;10608;42.600;23.398;2022-12-10T15:27:57;84.90;;;81.27;;
20896;SDS011;10608;42.600;23.398;2022-12-10T15:33:27;52.60;;;50.40;;
20896;SDS011;10608;42.600;23.398;2022-12-10T15:35:57;43.43;;;41.63;;
20896;SDS011;10608;42.600;23.398;2022-12-10T15:38:24;47.70;;;45.70;;
20896;SDS011;10608;42.600;23.398;2022-12-10T15:40:50;56.57;;;54.17;;
20896;SDS011;10608;42.600;23.398;2022-12-10T15:45:48;62.57;;;59.97;;
20896;SDS011;10608;42.600;23.398;2022-12-10T15:48:15;44.37;;;42.53;;
20896;SDS011;10608;42.600;23.398;2022-12-10T15:50:40;84.73;;;81.17;;
20896;SDS011;10608;42.600;23.398;2022-12-10T15:53:12;80.47;;;77.10;;
20896;SDS011;10608;42.600;23.398;2022-12-10T15:55:39;68.10;;;65.30;;
20896;SDS011;10608;42.600;23.398;2022-12-10T15:58:14;102.27;;;97.87;;
20896;SDS011;10608;42.600;23.398;2022-12-10T16:00:40;110.40;;;105.73;;
20896;SDS011;10608;42.600;23.398;2022-12-10T16:03:11;77.87;;;74.57;;
20896;SDS011;10608;42.600;23.398;2022-12-10T16:05:39;69.10;;;66.13;;
20896;SDS011;10608;42.600;23.398;2022-12-10T16:08:09;69.97;;;67.03;;
20896;SDS011;10608;42.600;23.398;2022-12-10T16:10:36;44.53;;;42.70;;
20896;SDS011;10608;42.600;23.398;2022-12-10T16:13:06;50.93;;;48.83;;
20896;SDS011;10608;42.600;23.398;2022-12-10T16:15:38;31.70;;;30.40;;
20896;SDS011;10608;42.600;23.398;2022-12-10T16:18:09;25.07;;;23.97;;
20896;SDS011;10608;42.600;23.398;2022-12-10T16:20:36;21.33;;;20.43;;